Time;durP1;ratioP1;P1;durP2;ratioP2;P2;SDS_P1;SDS_P2;PMS_P1;PMS_P2;Temp;Humidity;BMP_temperature;BMP_pressure;BME280_temperature;BME280_humidity;BME280_pressure;Samples;Min_cycle;Max_cycle;Signal;HPM_P1;HPM_P2
2023/09/28 00:01:47;;;;;;;5.72;5.18;;;;;;;18.10;86.32;101308.56;6280586;22;20504;-79
2023/09/28 00:04:14;;;;;;;11.27;5.63;;;;;;;18.08;86.79;101304.88;6278453;22;20020;-79
2023/09/28 00:06:41;;;;;;;6.28;5.78;;;;;;;18.06;86.88;101305.34;6279802;22;20082;-79
2023/09/28 00:09:10;;;;;;;5.15;4.75;;;;;;;18.02;86.75;101314.84;6280122;22;20406;-79
2023/09/28 00:11:37;;;;;;;7.82;5.57;;;;;;;17.99;87.26;101314.59;6278191;22;20031;-79
2023/09/28 00:14:04;;;;;;;7.47;5.07;;;;;;;17.95;87.98;101314.09;6278929;22;20470;-79
2023/09/28 00:16:31;;;;;;;9.70;5.50;;;;;;;17.93;87.87;101313.81;6279599;22;20048;-80
2023/09/28 00:18:58;;;;;;;7.03;5.20;;;;;;;17.90;88.10;101319.41;6278575;22;20027;-80
2023/09/28 00:21:26;;;;;;;6.18;4.90;;;;;;;17.83;88.80;101323.28;6278951;22;20469;-80
2023/09/28 00:23:52;;;;;;;6.63;5.20;;;;;;;17.78;88.70;101323.97;6279758;22;20074;-78
2023/09/28 00:26:20;;;;;;;7.20;4.97;;;;;;;17.76;89.35;101333.72;6279199;22;20450;-80
2023/09/28 00:28:49;;;;;;;5.68;5.18;;;;;;;17.72;89.35;101338.56;6281763;22;20454;-79
2023/09/28 00:31:17;;;;;;;8.38;5.70;;;;;;;17.70;89.86;101341.75;6281470;22;20012;-79
2023/09/28 00:33:43;;;;;;;7.65;5.35;;;;;;;17.65;90.09;101348.53;6281124;22;20012;-78
2023/09/28 00:36:10;;;;;;;8.90;5.38;;;;;;;17.62;90.44;101344.06;6279437;22;20082;-79
2023/09/28 00:38:37;;;;;;;7.18;5.05;;;;;;;17.61;90.07;101349.94;6279109;22;20102;-79
2023/09/28 00:41:04;;;;;;;5.68;5.13;;;;;;;17.58;90.15;101348.94;6280417;22;20071;-79
2023/09/28 00:43:31;;;;;;;6.90;4.72;;;;;;;17.55;90.93;101355.28;6279596;22;20884;-79
2023/09/28 00:45:59;;;;;;;5.40;4.70;;;;;;;17.52;91.07;101356.22;6279951;22;20119;-79
2023/09/28 00:48:25;;;;;;;5.68;5.18;;;;;;;17.50;91.53;101352.53;6278875;22;20095;-79
2023/09/28 00:50:52;;;;;;;5.35;4.85;;;;;;;17.47;91.47;101356.91;6254044;22;20086;-79
2023/09/28 00:53:21;;;;;;;4.80;4.50;;;;;;;17.45;91.28;101345.13;6278628;22;20353;-79
2023/09/28 00:55:48;;;;;;;7.20;4.80;;;;;;;17.42;91.93;101332.59;6279557;22;20031;-79
2023/09/28 00:58:15;;;;;;;5.03;4.63;;;;;;;17.38;92.48;101335.50;6279370;22;20020;-79
2023/09/28 01:00:42;;;;;;;5.38;4.88;;;;;;;17.34;92.63;101343.78;6281083;22;20425;-79
2023/09/28 01:03:11;;;;;;;5.30;4.80;;;;;;;17.30;92.62;101348.63;6279306;22;20022;-79
2023/09/28 01:05:40;;;;;;;5.70;4.55;;;;;;;17.28;92.50;101352.97;6280797;22;20046;-79
2023/09/28 01:08:12;;;;;;;5.32;4.85;;;;;;;17.25;92.85;101348.53;6280248;22;20016;-79
2023/09/28 01:10:42;;;;;;;6.63;5.25;;;;;;;17.19;93.82;101359.25;6279539;22;20012;-80
2023/09/28 01:13:15;;;;;;;6.93;5.15;;;;;;;17.18;93.63;101348.97;6281259;22;20379;-80
2023/09/28 01:15:47;;;;;;;6.97;5.00;;;;;;;17.15;93.73;101360.66;6279664;22;20047;-79
2023/09/28 01:18:15;;;;;;;;;;;;;;;17.15;92.80;101366.78;6281517;22;20051;-80
2023/09/28 01:20:44;;;;;;;8.77;4.50;;;;;;;17.08;94.07;101353.72;6280994;22;19920;-79
2023/09/28 01:23:10;;;;;;;4.93;4.50;;;;;;;17.05;94.21;101346.59;6279952;22;20083;-79
2023/09/28 01:25:38;;;;;;;5.53;5.03;;;;;;;16.98;94.26;101342.34;6280723;22;20100;-79
2023/09/28 01:28:10;;;;;;;5.22;4.53;;;;;;;16.96;94.57;101344.75;6281200;22;20016;-79
2023/09/28 01:30:37;;;;;;;5.70;5.20;;;;;;;16.92;94.74;101359.63;6279425;22;20476;-79
2023/09/28 01:33:08;;;;;;;5.03;4.63;;;;;;;16.85;95.06;101352.69;6278940;22;20084;-79
2023/09/28 01:35:36;;;;;;;6.47;4.93;;;;;;;16.80;94.95;101356.03;6278923;22;20020;-79
2023/09/28 01:38:11;;;;;;;5.00;4.60;;;;;;;16.79;94.94;101359.22;6280846;22;20017;-79
2023/09/28 01:40:38;;;;;;;5.57;4.65;;;;;;;16.71;96.14;101353.47;6280622;22;20012;-78
2023/09/28 01:43:05;;;;;;;4.95;4.65;;;;;;;16.69;96.42;101355.13;6281089;22;20067;-79
2023/09/28 01:45:33;;;;;;;4.70;4.40;;;;;;;16.64;96.96;101361.91;6280826;22;20020;-79
2023/09/28 01:48:01;;;;;;;5.55;5.05;;;;;;;16.61;96.60;101358.19;6281353;22;20016;-79
2023/09/28 01:50:27;;;;;;;10.65;4.88;;;;;;;16.60;97.08;101370.13;6280365;22;20016;-79
2023/09/28 01:52:54;;;;;;;7.95;5.35;;;;;;;16.57;97.57;101371.06;6278680;22;20027;-79
2023/09/28 01:55:21;;;;;;;8.25;4.70;;;;;;;16.52;96.94;101370.97;6280252;22;20016;-79
2023/09/28 01:57:48;;;;;;;5.55;4.82;;;;;;;16.48;97.63;101381.91;6279575;22;20016;-79
2023/09/28 02:00:18;;;;;;;7.15;5.35;;;;;;;16.43;98.46;101379.13;6279231;22;20071;-79
2023/09/28 02:02:46;;;;;;;7.00;4.63;;;;;;;16.40;98.36;101378.09;6253809;22;20957;-79
2023/09/28 02:05:18;;;;;;;7.20;4.60;;;;;;;16.37;97.96;101370.25;6278893;22;20445;-80
2023/09/28 02:07:46;;;;;;;10.38;4.90;;;;;;;16.34;98.39;101378.03;6253109;22;20028;-79
2023/09/28 02:10:14;;;;;;;9.43;5.20;;;;;;;16.30;98.18;101372.13;6280561;22;20016;-79
2023/09/28 02:12:45;;;;;;;5.30;4.60;;;;;;;16.26;98.47;101373.50;6280796;22;20012;-80
2023/09/28 02:15:15;;;;;;;4.97;4.57;;;;;;;16.21;98.47;101380.25;6278731;22;20032;-79
2023/09/28 02:17:44;;;;;;;7.30;4.40;;;;;;;16.18;98.67;101377.75;6280676;22;20016;-79
2023/09/28 02:20:16;;;;;;;6.15;4.70;;;;;;;16.14;98.95;101364.50;6280187;22;20046;-79
2023/09/28 02:22:44;;;;;;;5.65;4.63;;;;;;;16.08;99.40;101363.66;6280175;22;20405;-79
2023/09/28 02:25:18;;;;;;;7.82;5.10;;;;;;;16.05;99.53;101364.59;6279016;22;20070;-79
2023/09/28 02:27:46;;;;;;;5.32;4.82;;;;;;;16.00;99.89;101359.84;6279595;22;20016;-79
2023/09/28 02:30:17;;;;;;;5.55;4.88;;;;;;;15.97;100.00;101366.16;6278805;22;20020;-78
2023/09/28 02:32:44;;;;;;;5.28;4.78;;;;;;;15.95;100.00;101371.25;6280449;22;20452;-79
2023/09/28 02:35:14;;;;;;;6.22;5.50;;;;;;;15.94;100.00;101369.78;6280458;22;20458;-79
2023/09/28 02:37:43;;;;;;;5.47;4.97;;;;;;;15.92;100.00;101377.56;6278819;22;20438;-79
2023/09/28 02:40:15;;;;;;;9.57;4.82;;;;;;;15.89;100.00;101381.16;6280436;22;20370;-79
2023/09/28 02:42:42;;;;;;;5.70;4.53;;;;;;;15.84;100.00;101384.47;6280465;22;20131;-79
2023/09/28 02:45:11;;;;;;;5.40;4.90;;;;;;;15.82;100.00;101389.56;6278925;22;20103;-79
2023/09/28 02:47:43;;;;;;;5.57;4.90;;;;;;;15.78;100.00;101387.06;6278537;22;20020;-79
2023/09/28 02:50:11;;;;;;;6.25;4.88;;;;;;;15.79;100.00;101385.84;6280141;22;20022;-79
2023/09/28 02:52:40;;;;;;;5.75;5.18;;;;;;;15.77;100.00;101392.88;6278454;22;20457;-79
2023/09/28 02:55:10;;;;;;;7.07;5.30;;;;;;;15.77;100.00;101390.19;6253014;22;20330;-79
2023/09/28 02:57:37;;;;;;;6.03;5.50;;;;;;;15.75;100.00;101389.91;6278552;22;20078;-79
2023/09/28 03:00:25;;;;;;;6.07;5.57;;;;;;;15.75;100.00;101396.03;6279329;22;20421;-79
2023/09/28 03:02:56;;;;;;;8.48;5.57;;;;;;;15.75;100.00;101385.28;6279079;22;20020;-79
2023/09/28 03:05:24;;;;;;;8.80;5.30;;;;;;;15.74;100.00;101380.38;6277210;22;20062;-79
2023/09/28 03:07:51;;;;;;;6.45;5.85;;;;;;;15.71;100.00;101383.97;6279277;22;20018;-79
2023/09/28 03:10:19;;;;;;;5.70;5.15;;;;;;;15.72;100.00;101393.50;6280283;22;20485;-79
2023/09/28 03:12:46;;;;;;;6.32;5.60;;;;;;;15.66;100.00;101391.44;6280674;22;20016;-79
2023/09/28 03:15:14;;;;;;;7.78;5.72;;;;;;;15.64;100.00;101398.47;6253435;22;20413;-79
2023/09/28 03:17:41;;;;;;;10.35;5.38;;;;;;;15.62;100.00;101401.63;6280544;22;20095;-79
2023/09/28 03:20:17;;;;;;;5.78;5.28;;;;;;;15.58;100.00;101401.06;6278308;22;20537;-79
2023/09/28 03:22:46;;;;;;;5.82;5.43;;;;;;;15.56;100.00;101406.16;6253393;22;20055;-79
2023/09/28 03:25:17;;;;;;;8.60;5.78;;;;;;;15.53;100.00;101409.72;6279979;22;20516;-79
2023/09/28 03:27:46;;;;;;;5.90;5.28;;;;;;;15.52;100.00;101407.50;6253966;22;20016;-79
2023/09/28 03:30:14;;;;;;;7.10;5.68;;;;;;;15.49;100.00;101414.53;6278485;22;20389;-79
2023/09/28 03:32:41;;;;;;;6.32;5.70;;;;;;;15.48;100.00;101414.97;6277684;22;20024;-79
2023/09/28 03:35:10;;;;;;;6.47;5.95;;;;;;;15.45;100.00;101421.25;6280750;22;20063;-79
2023/09/28 03:37:37;;;;;;;6.82;5.68;;;;;;;15.42;100.00;101427.53;6280533;22;20450;-79
2023/09/28 03:40:11;;;;;;;9.65;6.13;;;;;;;15.40;100.00;101451.38;6280756;22;20016;-79
2023/09/28 03:42:40;;;;;;;8.00;6.15;;;;;;;15.38;100.00;101437.69;6278705;22;20480;-79
2023/09/28 03:45:13;;;;;;;8.45;6.55;;;;;;;15.32;100.00;101451.72;6278221;22;20059;-79
2023/09/28 03:47:42;;;;;;;6.10;5.60;;;;;;;15.29;100.00;101457.25;6279586;22;20074;-79
2023/09/28 03:50:12;;;;;;;7.15;6.45;;;;;;;15.26;100.00;101466.94;6278287;22;20023;-79
2023/09/28 03:52:40;;;;;;;6.80;6.07;;;;;;;15.22;100.00;101470.97;6280296;22;20016;-80
2023/09/28 03:55:14;;;;;;;6.82;6.25;;;;;;;15.19;100.00;101471.91;6280167;22;20027;-79
2023/09/28 03:57:44;;;;;;;6.63;6.03;;;;;;;15.12;100.00;101472.97;6278462;22;20059;-79
2023/09/28 04:00:12;;;;;;;7.35;6.03;;;;;;;15.08;100.00;101483.13;6280490;22;20016;-79
2023/09/28 04:02:48;;;;;;;6.25;5.72;;;;;;;15.06;100.00;101476.72;6279140;22;20016;-79
2023/09/28 04:05:20;;;;;;;7.15;5.75;;;;;;;15.01;100.00;101484.19;6279945;22;20079;-79
2023/09/28 04:07:47;;;;;;;8.70;5.97;;;;;;;14.97;100.00;101480.16;6280587;22;20016;-79
2023/09/28 04:10:14;;;;;;;6.30;5.65;;;;;;;14.96;100.00;101486.72;6280350;22;20568;-79
2023/09/28 04:12:41;;;;;;;6.40;5.88;;;;;;;14.91;100.00;101480.03;6279090;22;20022;-79
2023/09/28 04:15:08;;;;;;;6.53;5.93;;;;;;;14.85;100.00;101489.88;6278366;22;20016;-79
2023/09/28 04:17:35;;;;;;;5.88;5.38;;;;;;;14.84;100.00;101493.75;6277737;22;20070;-79
2023/09/28 04:20:04;;;;;;;7.10;6.20;;;;;;;14.83;100.00;101494.19;6280413;22;20021;-79
2023/09/28 04:22:32;;;;;;;12.23;6.05;;;;;;;14.82;100.00;101496.13;6279679;22;20012;-79
2023/09/28 04:24:59;;;;;;;7.00;6.22;;;;;;;14.78;100.00;101492.13;6280399;22;20020;-78
2023/09/28 04:27:26;;;;;;;6.70;5.88;;;;;;;14.76;100.00;101497.22;6279589;22;20016;-79
2023/09/28 04:29:53;;;;;;;8.02;5.75;;;;;;;14.72;100.00;101483.97;6280077;22;20016;-80
2023/09/28 04:32:19;;;;;;;7.35;5.82;;;;;;;14.66;100.00;101475.78;6278766;22;20066;-80
2023/09/28 04:34:46;;;;;;;6.80;6.20;;;;;;;14.65;100.00;101481.59;6280102;22;20083;-79
2023/09/28 04:37:13;;;;;;;7.22;5.97;;;;;;;14.62;100.00;101477.13;6278180;22;20572;-79
2023/09/28 04:39:39;;;;;;;7.78;6.28;;;;;;;14.57;100.00;101475.78;6278357;22;20477;-79
2023/09/28 04:42:06;;;;;;;6.10;5.60;;;;;;;14.57;100.00;101485.75;6279814;22;20091;-79
2023/09/28 04:44:33;;;;;;;7.45;6.28;;;;;;;14.53;100.00;101493.94;6277804;22;20458;-79
2023/09/28 04:46:59;;;;;;;7.03;6.38;;;;;;;14.49;100.00;101489.94;6279376;22;20353;-79
2023/09/28 04:49:26;;;;;;;6.72;5.80;;;;;;;14.46;100.00;101491.56;6279451;22;20019;-80
2023/09/28 04:51:53;;;;;;;8.18;6.70;;;;;;;14.45;100.00;101490.09;6280051;22;20468;-80
2023/09/28 04:54:20;;;;;;;7.30;6.28;;;;;;;14.42;100.00;101501.69;6279137;22;20373;-79
2023/09/28 04:56:46;;;;;;;6.55;5.93;;;;;;;14.40;100.00;101508.66;6280010;22;20020;-79
2023/09/28 04:59:13;;;;;;;6.50;6.00;;;;;;;14.38;100.00;101509.13;6277614;22;20082;-79
2023/09/28 05:01:39;;;;;;;8.98;6.40;;;;;;;14.36;100.00;101508.81;6278722;22;20063;-79
2023/09/28 05:04:10;;;;;;;7.15;5.72;;;;;;;14.35;100.00;101513.44;6277513;22;20472;-79
2023/09/28 05:06:40;;;;;;;7.25;6.40;;;;;;;14.32;100.00;101511.66;6277743;22;20024;-78
2023/09/28 05:09:07;;;;;;;7.70;6.68;;;;;;;14.30;100.00;101507.94;6279460;22;20402;-77
2023/09/28 05:11:34;;;;;;;8.88;6.45;;;;;;;14.28;100.00;101513.72;6279278;22;20424;-76
2023/09/28 05:14:01;;;;;;;7.28;6.68;;;;;;;14.28;100.00;101519.09;6279128;22;20027;-78
2023/09/28 05:16:28;;;;;;;7.43;6.78;;;;;;;14.30;100.00;101526.69;6280401;22;20055;-78
2023/09/28 05:18:55;;;;;;;9.50;6.88;;;;;;;14.25;100.00;101536.03;6281106;22;20019;-78
2023/09/28 05:21:23;;;;;;;6.82;6.22;;;;;;;14.24;100.00;101536.50;6280122;22;20057;-79
2023/09/28 05:23:50;;;;;;;8.40;6.95;;;;;;;14.22;100.00;101534.25;6281470;22;20023;-76
2023/09/28 05:26:16;;;;;;;9.88;7.05;;;;;;;14.23;100.00;101535.75;6280750;22;20016;-75
2023/09/28 05:28:43;;;;;;;7.47;6.65;;;;;;;14.24;100.00;101545.28;6280139;22;20016;-77
2023/09/28 05:31:10;;;;;;;11.38;6.60;;;;;;;14.27;100.00;101540.94;6280490;22;20073;-76
2023/09/28 05:33:37;;;;;;;12.63;6.38;;;;;;;14.28;100.00;101553.91;6280427;22;20016;-78
2023/09/28 05:36:04;;;;;;;11.93;5.90;;;;;;;14.29;100.00;101560.00;6280994;22;20013;-76
2023/09/28 05:38:31;;;;;;;18.00;5.63;;;;;;;14.29;100.00;101560.75;6280233;22;20489;-75
2023/09/28 05:40:57;;;;;;;13.98;4.93;;;;;;;14.29;100.00;101571.47;6280738;22;20087;-78
2023/09/28 05:43:24;;;;;;;15.50;4.75;;;;;;;14.29;100.00;101571.47;6279762;22;20020;-79
2023/09/28 05:45:51;;;;;;;15.20;4.18;;;;;;;14.29;100.00;101563.44;6279627;22;20098;-79
2023/09/28 05:48:18;;;;;;;12.50;4.25;;;;;;;14.31;100.00;101566.41;6280759;22;20016;-79
2023/09/28 05:50:45;;;;;;;13.82;4.15;;;;;;;14.32;100.00;101569.81;6280921;22;20034;-80
2023/09/28 05:53:11;;;;;;;12.98;3.75;;;;;;;14.34;100.00;101575.50;6280731;22;20074;-79
2023/09/28 05:55:38;;;;;;;22.75;4.03;;;;;;;14.36;100.00;101570.44;6280893;22;20442;-79
2023/09/28 05:58:05;;;;;;;20.58;4.07;;;;;;;14.37;100.00;101571.91;6279098;22;20457;-79
2023/09/28 06:00:31;;;;;;;20.48;3.95;;;;;;;14.40;100.00;101583.66;6281200;22;20091;-79
2023/09/28 06:02:58;;;;;;;24.58;4.15;;;;;;;14.43;100.00;101585.47;6281181;22;20016;-80
2023/09/28 06:05:25;;;;;;;19.83;4.13;;;;;;;14.44;100.00;101589.63;6280204;22;20629;-79
2023/09/28 06:07:51;;;;;;;12.55;3.75;;;;;;;14.45;100.00;101589.19;6281378;22;20016;-78
2023/09/28 06:10:18;;;;;;;16.25;3.90;;;;;;;14.48;100.00;101595.59;6280612;22;20091;-79
2023/09/28 06:12:45;;;;;;;21.15;3.30;;;;;;;14.51;100.00;101587.41;6280477;22;20016;-79
2023/09/28 06:15:11;;;;;;;11.00;3.30;;;;;;;14.55;100.00;101579.25;6253406;22;20104;-81
2023/09/28 06:17:38;;;;;;;22.38;3.90;;;;;;;14.58;100.00;101576.41;6279432;22;20016;-77
2023/09/28 06:20:07;;;;;;;24.95;4.20;;;;;;;14.59;100.00;101579.84;6280775;22;20016;-79
2023/09/28 06:22:33;;;;;;;16.85;3.38;;;;;;;14.63;100.00;101591.16;6278192;22;20028;-80
2023/09/28 06:25:00;;;;;;;17.65;3.58;;;;;;;14.65;100.00;101586.09;6280923;22;20020;-82
2023/09/28 06:27:28;;;;;;;19.30;3.60;;;;;;;14.68;100.00;101583.25;6279501;22;20016;-79
2023/09/28 06:29:56;;;;;;;14.30;3.20;;;;;;;14.72;100.00;101591.16;6281939;22;20876;-80
2023/09/28 06:32:22;;;;;;;30.30;4.80;;;;;;;14.82;100.00;101591.88;6281111;22;20027;-79
2023/09/28 06:34:50;;;;;;;15.68;3.97;;;;;;;15.05;100.00;101603.94;6282046;22;20013;-81
2023/09/28 06:37:17;;;;;;;21.02;4.40;;;;;;;15.06;100.00;101606.16;6279855;22;20026;-79
2023/09/28 06:39:43;;;;;;;30.02;4.05;;;;;;;15.09;100.00;101617.94;6279691;22;20472;-78
2023/09/28 06:42:10;;;;;;;25.83;4.18;;;;;;;15.24;100.00;101619.53;6280571;22;20092;-76
2023/09/28 06:44:57;;;;;;;20.15;3.42;;;;;;;15.35;100.00;101613.69;6281571;22;20070;-76
2023/09/28 06:47:24;;;;;;;22.10;3.65;;;;;;;15.33;100.00;101616.84;6278782;22;20024;-76
2023/09/28 06:50:04;;;;;;;25.67;3.50;;;;;;;15.37;100.00;101619.34;6279494;22;20027;-76
2023/09/28 06:52:32;;;;;;;19.02;3.50;;;;;;;15.42;100.00;101621.44;6280748;22;20074;-77
2023/09/28 06:54:59;;;;;;;18.83;4.13;;;;;;;15.48;100.00;101626.94;6281633;22;20012;-81
2023/09/28 06:57:26;;;;;;;16.38;3.33;;;;;;;15.56;100.00;101636.16;6280782;22;20390;-82
2023/09/28 06:59:53;;;;;;;18.45;3.78;;;;;;;15.63;100.00;101649.28;6282184;22;20047;-81
2023/09/28 07:02:20;;;;;;;19.02;3.67;;;;;;;15.71;100.00;101652.38;6279339;22;20016;-81
2023/09/28 07:04:46;;;;;;;16.70;3.28;;;;;;;15.80;100.00;101655.03;6281869;22;20016;-82
2023/09/28 07:07:17;;;;;;;22.42;4.25;;;;;;;15.87;100.00;101654.72;6281274;22;20070;-83
2023/09/28 07:09:44;;;;;;;18.00;3.90;;;;;;;15.91;100.00;101658.00;6281281;22;20465;-81
2023/09/28 07:12:23;;;;;;;19.67;3.72;;;;;;;15.98;99.96;101665.72;6280477;22;20054;-82
2023/09/28 07:14:49;;;;;;;19.70;3.53;;;;;;;16.05;99.46;101667.31;6281121;22;20407;-83
2023/09/28 07:17:16;;;;;;;16.65;3.53;;;;;;;16.13;99.00;101671.91;6253704;22;20012;-81
2023/09/28 07:19:42;;;;;;;24.80;3.92;;;;;;;16.26;98.84;101658.25;6280486;22;20024;-81
2023/09/28 07:22:09;;;;;;;26.08;4.10;;;;;;;16.38;97.84;101656.56;6280037;22;20216;-81
2023/09/28 07:24:36;;;;;;;22.90;3.70;;;;;;;16.43;96.73;101651.28;6278067;22;20027;-82
2023/09/28 07:27:03;;;;;;;26.05;3.90;;;;;;;16.51;95.69;101655.09;6280788;22;20048;-82
2023/09/28 07:29:30;;;;;;;22.25;3.97;;;;;;;16.62;96.47;101658.03;6278720;22;20066;-81
2023/09/28 07:31:56;;;;;;;26.67;4.20;;;;;;;16.72;95.89;101656.06;6280690;22;20021;-82
2023/09/28 07:34:23;;;;;;;20.63;3.58;;;;;;;16.81;95.21;101669.41;6278244;22;20446;-81
2023/09/28 07:36:50;;;;;;;18.55;3.67;;;;;;;16.94;94.81;101659.16;6278478;22;20016;-82
2023/09/28 07:39:19;;;;;;;27.15;3.78;;;;;;;17.15;94.68;101678.84;6279971;22;20016;-82
2023/09/28 07:41:45;;;;;;;18.45;3.53;;;;;;;17.21;91.92;101687.00;6279528;22;20055;-83
2023/09/28 07:44:12;;;;;;;19.00;3.78;;;;;;;17.10;91.69;101684.13;6280369;22;20022;-82
2023/09/28 07:46:39;;;;;;;28.77;4.15;;;;;;;17.07;93.25;101677.72;6278595;22;20031;-82
2023/09/28 07:49:07;;;;;;;18.65;3.65;;;;;;;17.07;92.55;101701.94;6280656;22;20475;-83
2023/09/28 07:51:33;;;;;;;24.95;4.00;;;;;;;17.07;92.62;101699.25;6278661;22;20424;-82
2023/09/28 07:53:59;;;;;;;21.08;3.78;;;;;;;17.08;93.24;101697.31;6280130;22;20012;-82
2023/09/28 07:56:26;;;;;;;16.63;3.92;;;;;;;17.05;92.40;101707.03;6280430;22;20012;-81
2023/09/28 07:58:53;;;;;;;19.85;4.00;;;;;;;17.04;91.70;101713.63;6279882;22;20016;-82
2023/09/28 08:01:20;;;;;;;21.25;4.45;;;;;;;17.02;91.79;101707.94;6278208;22;20471;-83
2023/09/28 08:03:47;;;;;;;20.38;4.13;;;;;;;16.98;91.69;101710.81;6278617;22;20016;-82
2023/09/28 08:06:13;;;;;;;22.02;4.18;;;;;;;17.00;91.77;101702.28;6278152;22;20469;-81
2023/09/28 08:08:55;;;;;;;22.40;3.95;;;;;;;17.06;90.89;101705.09;6280069;22;20106;-81
2023/09/28 08:11:22;;;;;;;18.92;3.90;;;;;;;17.11;91.86;101707.88;6279891;22;20021;-82
2023/09/28 08:13:49;;;;;;;16.58;3.42;;;;;;;17.19;90.97;101710.97;6280523;22;20019;-82
2023/09/28 08:16:15;;;;;;;18.80;4.22;;;;;;;17.21;90.48;101719.28;6280433;22;20099;-81
2023/09/28 08:18:42;;;;;;;21.50;4.25;;;;;;;17.26;90.75;101719.41;6278035;22;20078;-82
2023/09/28 08:21:09;;;;;;;21.05;3.65;;;;;;;17.31;90.89;101726.09;6279311;22;20044;-82
2023/09/28 08:23:37;;;;;;;21.45;3.78;;;;;;;17.37;90.36;101728.88;6278230;22;20024;-82
2023/09/28 08:26:07;;;;;;;14.68;3.20;;;;;;;17.43;90.53;101717.00;6279998;22;20043;-82
2023/09/28 08:28:34;;;;;;;19.58;3.65;;;;;;;17.46;89.32;101709.97;6278180;22;20434;-83
2023/09/28 08:31:04;;;;;;;19.38;4.30;;;;;;;17.51;89.46;101699.28;6280175;22;20074;-84
2023/09/28 08:33:31;;;;;;;19.98;4.18;;;;;;;17.58;87.33;101712.38;6252487;22;20027;-84
2023/09/28 08:35:58;;;;;;;23.90;4.05;;;;;;;17.70;88.17;101734.84;6252937;22;20521;-83
2023/09/28 08:38:25;;;;;;;17.38;3.85;;;;;;;17.81;86.98;101745.06;6278198;22;20019;-84
2023/09/28 08:40:59;;;;;;;20.08;4.00;;;;;;;17.89;87.23;101741.53;6281323;22;20020;-83
2023/09/28 08:43:31;;;;;;;17.77;3.95;;;;;;;17.94;87.06;101730.13;6282381;22;20094;-83
2023/09/28 08:46:01;;;;;;;16.90;3.70;;;;;;;17.96;86.10;101735.03;6281540;22;20016;-83
2023/09/28 08:48:30;;;;;;;22.42;4.53;;;;;;;18.02;85.63;101741.22;6280404;22;20016;-85
2023/09/28 08:51:09;;;;;;;18.33;3.55;;;;;;;18.08;85.22;101741.31;6280838;22;20477;-83
2023/09/28 08:53:40;;;;;;;15.30;3.40;;;;;;;18.12;84.75;101737.22;6253909;22;20453;-84
2023/09/28 08:56:07;;;;;;;18.42;3.97;;;;;;;18.23;82.80;101745.47;6281553;22;20048;-83
2023/09/28 08:58:34;;;;;;;19.75;4.03;;;;;;;18.31;83.30;101740.44;6280163;22;20023;-83
2023/09/28 09:01:03;;;;;;;18.77;3.75;;;;;;;18.38;83.07;101734.66;6282199;22;20020;-83
2023/09/28 09:03:35;;;;;;;19.75;4.57;;;;;;;18.42;83.15;101739.84;6281735;22;20016;-83
2023/09/28 09:06:05;;;;;;;14.35;4.13;;;;;;;18.42;82.52;101742.53;6279778;22;20016;-83
2023/09/28 09:08:35;;;;;;;24.00;4.20;;;;;;;18.49;82.21;101737.50;6279857;22;20439;-83
2023/09/28 09:11:01;;;;;;;27.50;4.65;;;;;;;18.56;83.02;101734.41;6255235;22;20027;-83
2023/09/28 09:13:29;;;;;;;19.20;4.15;;;;;;;18.58;81.96;101755.50;6254202;22;20070;-83
2023/09/28 09:15:56;;;;;;;21.58;4.10;;;;;;;18.62;80.84;101756.09;6282369;22;20442;-83
2023/09/28 09:18:26;;;;;;;19.67;3.95;;;;;;;18.59;81.20;101751.59;6281227;22;20447;-84
2023/09/28 09:21:00;;;;;;;19.42;4.00;;;;;;;18.68;80.90;101756.16;6281203;22;20095;-84
2023/09/28 09:23:28;;;;;;;21.15;3.60;;;;;;;18.71;79.24;101761.34;6278728;22;20026;-84
2023/09/28 09:25:55;;;;;;;13.30;3.72;;;;;;;18.78;80.37;101769.03;6279812;22;20013;-83
2023/09/28 09:28:32;;;;;;;16.60;3.78;;;;;;;18.91;80.63;101769.44;6280140;22;20413;-83
2023/09/28 09:31:00;;;;;;;19.60;3.80;;;;;;;18.98;78.82;101769.03;6279747;22;20031;-84
2023/09/28 09:33:28;;;;;;;16.92;3.53;;;;;;;19.02;79.75;101763.44;6278706;22;20020;-83
2023/09/28 09:35:55;;;;;;;20.67;4.20;;;;;;;18.98;78.75;101762.91;6278919;22;20465;-83
2023/09/28 09:38:31;;;;;;;17.63;3.63;;;;;;;19.15;79.94;101760.41;6253393;22;20023;-82
2023/09/28 09:41:08;;;;;;;19.60;3.65;;;;;;;19.26;77.98;101753.13;6288983;22;20020;-83
2023/09/28 09:43:35;;;;;;;24.05;4.50;;;;;;;19.37;77.73;101749.81;6282004;22;20012;-83
2023/09/28 09:46:06;;;;;;;19.33;4.40;;;;;;;19.58;76.72;101751.28;6281773;22;20083;-83
2023/09/28 09:48:40;;;;;;;24.95;3.60;;;;;;;19.82;77.12;101742.88;6280906;22;20020;-83
2023/09/28 09:51:09;;;;;;;17.42;4.25;;;;;;;19.95;76.26;101742.47;6278775;22;20025;-83
2023/09/28 09:53:40;;;;;;;32.95;5.55;;;;;;;20.14;76.53;101748.25;6279406;22;20022;-84
2023/09/28 09:56:07;;;;;;;13.07;3.90;;;;;;;20.19;74.49;101747.53;6279335;22;20047;-84
2023/09/28 09:58:40;;;;;;;19.95;3.95;;;;;;;20.20;74.20;101749.03;6280854;22;20016;-84
2023/09/28 10:01:13;;;;;;;21.10;4.35;;;;;;;20.24;72.47;101742.19;6280675;22;20021;-84
2023/09/28 10:03:48;;;;;;;18.98;4.10;;;;;;;20.30;74.05;101747.63;6279507;22;20091;-83
2023/09/28 10:06:16;;;;;;;18.80;4.07;;;;;;;20.22;73.33;101746.59;6280189;22;20103;-84
2023/09/28 10:08:45;;;;;;;20.17;3.90;;;;;;;20.25;72.56;101762.59;6280729;22;20059;-84
2023/09/28 10:11:13;;;;;;;23.15;4.47;;;;;;;20.26;71.40;101760.63;6280701;22;20535;-83
2023/09/28 10:13:40;;;;;;;13.30;3.58;;;;;;;20.29;71.46;101762.38;6281085;22;20023;-84
2023/09/28 10:16:09;;;;;;;14.77;3.58;;;;;;;20.20;72.08;101749.03;6280950;22;20012;-83
2023/09/28 10:18:37;;;;;;;14.25;3.95;;;;;;;20.15;71.98;101750.47;6279940;22;20017;-83
2023/09/28 10:21:05;;;;;;;16.83;4.13;;;;;;;20.16;70.49;101751.97;6281011;22;20450;-84
2023/09/28 10:23:31;;;;;;;18.35;4.10;;;;;;;20.16;72.47;101749.25;6282378;22;20020;-83
2023/09/28 10:26:14;;;;;;;18.15;4.00;;;;;;;20.14;71.02;101750.94;6282715;22;20454;-83
2023/09/28 10:29:04;;;;;;;17.00;3.78;;;;;;;20.14;71.55;101757.09;6281416;22;20319;-84
2023/09/28 10:31:40;;;;;;;21.58;5.15;;;;;;;20.16;72.19;101759.31;6306195;22;20024;-83
2023/09/28 10:34:26;;;;;;;17.27;3.63;;;;;;;20.26;71.75;101761.38;6280186;22;20431;-83
2023/09/28 10:37:11;;;;;;;19.27;3.85;;;;;;;20.31;71.38;101770.72;6281326;22;20016;-83
2023/09/28 10:39:38;;;;;;;14.75;4.07;;;;;;;20.33;71.76;101757.47;6281045;22;20016;-83
2023/09/28 10:42:12;;;;;;;23.92;4.25;;;;;;;20.35;71.18;101775.91;6281322;22;20021;-83
2023/09/28 10:44:53;;;;;;;17.73;3.92;;;;;;;20.41;72.10;101782.09;6281123;22;20086;-83
2023/09/28 10:47:20;;;;;;;;;;;;;;;20.36;72.59;101785.50;6281373;22;20016;-83
2023/09/28 10:49:49;;;;;;;12.77;3.50;;;;;;;20.20;70.69;101779.50;6282126;22;19923;-84
2023/09/28 10:52:16;;;;;;;14.98;3.83;;;;;;;20.07;70.11;101781.88;6280815;22;20020;-82
2023/09/28 10:54:44;;;;;;;19.77;3.88;;;;;;;19.96;70.51;101782.53;6281221;22;20335;-83
2023/09/28 10:57:11;;;;;;;16.92;3.83;;;;;;;19.93;70.86;101785.47;6281330;22;20012;-80
2023/09/28 10:59:40;;;;;;;15.18;4.00;;;;;;;19.97;70.72;101780.59;6280940;22;20016;-79
2023/09/28 11:02:08;;;;;;;18.30;3.75;;;;;;;20.06;71.33;101785.03;6280266;22;20020;-80
2023/09/28 11:04:39;;;;;;;13.32;3.58;;;;;;;20.12;69.94;101789.28;6278851;22;20012;-78
2023/09/28 11:07:17;;;;;;;16.58;3.95;;;;;;;20.30;71.64;101783.50;6280662;22;20012;-83
2023/09/28 11:09:44;;;;;;;19.48;3.40;;;;;;;20.43;70.54;101779.66;6281012;22;20017;-84
2023/09/28 11:12:11;;;;;;;20.50;4.47;;;;;;;20.52;70.10;101787.59;6280107;22;20020;-83
2023/09/28 11:14:44;;;;;;;17.92;3.55;;;;;;;20.40;68.98;101789.47;6280588;22;20446;-79
2023/09/28 11:17:10;;;;;;;23.08;4.80;;;;;;;20.21;69.05;101791.06;6280154;22;20044;-78
2023/09/28 11:19:37;;;;;;;14.77;3.42;;;;;;;20.17;69.32;101798.66;6280879;22;20012;-79
2023/09/28 11:22:04;;;;;;;14.13;3.65;;;;;;;20.09;70.00;101794.91;6253696;22;20028;-81
2023/09/28 11:24:32;;;;;;;20.08;4.15;;;;;;;20.11;69.69;101806.72;6284728;22;20016;-80